createdAt,value
2022-10-07T00:01:03.869Z,0.95
2022-10-07T00:03:31.611Z,1.50
2022-10-07T00:06:15.762Z,1.00
2022-10-07T00:08:44.515Z,0.90
2022-10-07T00:11:14.300Z,0.80
2022-10-07T00:13:42.362Z,1.10
2022-10-07T00:16:11.187Z,0.88
2022-10-07T00:18:40.373Z,0.77
2022-10-07T00:21:08.863Z,1.20
2022-10-07T00:23:36.572Z,0.80
2022-10-07T00:26:04.964Z,0.93
2022-10-07T00:28:33.966Z,0.97
2022-10-07T00:31:02.219Z,1.25
2022-10-07T00:33:33.499Z,0.98
2022-10-07T00:36:01.260Z,0.70
2022-10-07T00:38:28.849Z,1.27
2022-10-07T00:40:56.544Z,1.40
2022-10-07T00:43:29.694Z,0.85
2022-10-07T00:46:29.718Z,0.90
2022-10-07T00:49:01.699Z,1.67
2022-10-07T00:51:29.419Z,0.80
2022-10-07T00:53:57.085Z,0.90
2022-10-07T00:56:25.009Z,1.13
2022-10-07T00:58:52.678Z,1.17
2022-10-07T01:01:20.621Z,1.15
2022-10-07T01:03:48.841Z,1.27
2022-10-07T01:06:16.585Z,1.05
2022-10-07T01:08:44.748Z,0.60
2022-10-07T01:11:27.752Z,1.20
2022-10-07T01:14:12.018Z,0.80
2022-10-07T01:16:42.848Z,0.85
2022-10-07T01:19:21.363Z,1.07
2022-10-07T01:22:07.707Z,1.23
2022-10-07T01:24:40.074Z,0.93
2022-10-07T01:27:17.736Z,1.42
2022-10-07T01:29:58.929Z,1.23
2022-10-07T01:32:27.985Z,0.90
2022-10-07T01:34:55.675Z,0.50
2022-10-07T01:37:24.010Z,1.17
2022-10-07T01:39:53.985Z,0.90
2022-10-07T01:42:21.738Z,0.93
2022-10-07T01:44:50.893Z,1.30
2022-10-07T01:47:18.545Z,0.95
2022-10-07T01:49:46.198Z,0.82
2022-10-07T01:52:19.672Z,1.25
2022-10-07T01:55:07.291Z,1.00
2022-10-07T01:57:42.371Z,1.00
2022-10-07T02:00:10.795Z,1.30
2022-10-07T02:02:38.443Z,1.00
2022-10-07T02:05:17.081Z,1.48
2022-10-07T02:08:00.103Z,1.48
2022-10-07T02:10:28.979Z,0.90
2022-10-07T02:12:59.223Z,1.48
2022-10-07T02:15:49.951Z,1.42
2022-10-07T02:18:18.071Z,1.20
2022-10-07T02:20:46.782Z,1.20
2022-10-07T02:23:14.717Z,1.30
2022-10-07T02:25:45.186Z,1.20
2022-10-07T02:28:12.952Z,1.30
2022-10-07T02:30:40.640Z,0.95
2022-10-07T02:33:08.384Z,1.25
2022-10-07T02:35:39.799Z,0.90
2022-10-07T02:38:08.908Z,1.40
2022-10-07T02:40:37.409Z,1.05
2022-10-07T02:43:06.629Z,2.20
2022-10-07T02:45:43.266Z,1.70
2022-10-07T02:48:15.817Z,1.00
2022-10-07T02:50:44.115Z,1.25
2022-10-07T02:53:12.028Z,1.00
2022-10-07T02:55:39.803Z,1.10
2022-10-07T02:58:07.927Z,1.05
2022-10-07T03:00:36.695Z,1.67
2022-10-07T03:03:05.136Z,1.75
2022-10-07T03:05:34.169Z,1.10
2022-10-07T03:08:08.576Z,1.25
2022-10-07T03:10:36.236Z,1.53
2022-10-07T03:13:05.166Z,1.30
2022-10-07T03:15:33.060Z,1.50
2022-10-07T03:18:00.833Z,1.00
2022-10-07T03:20:30.812Z,1.05
2022-10-07T03:22:58.481Z,1.02
2022-10-07T03:25:26.845Z,1.30
2022-10-07T03:27:55.335Z,1.85
2022-10-07T03:30:24.515Z,0.93
2022-10-07T03:32:52.294Z,1.83
2022-10-07T03:35:19.967Z,1.43
2022-10-07T03:37:48.655Z,1.48
2022-10-07T03:40:17.588Z,1.58
2022-10-07T03:42:45.183Z,2.67
2022-10-07T03:45:12.861Z,1.90
2022-10-07T03:47:40.481Z,1.65
2022-10-07T03:50:08.948Z,1.50
2022-10-07T03:52:37.031Z,1.90
2022-10-07T03:55:04.757Z,1.20
2022-10-07T03:57:52.549Z,1.58
2022-10-07T04:00:23.632Z,1.83
2022-10-07T04:02:51.517Z,1.55
2022-10-07T04:05:19.957Z,1.85
2022-10-07T04:07:47.887Z,1.77
2022-10-07T04:10:16.835Z,1.25
2022-10-07T04:12:51.437Z,1.58
2022-10-07T04:15:19.520Z,1.60
2022-10-07T04:17:48.835Z,2.28
2022-10-07T04:20:17.254Z,1.63
2022-10-07T04:22:44.850Z,1.42
2022-10-07T04:25:31.840Z,1.70
2022-10-07T04:28:00.228Z,1.20
2022-10-07T04:30:29.016Z,1.70
2022-10-07T04:32:56.595Z,1.97
2022-10-07T04:35:24.475Z,1.80
2022-10-07T04:37:52.350Z,1.73
2022-10-07T04:40:20.493Z,1.33
2022-10-07T04:43:06.993Z,1.42
2022-10-07T04:45:35.224Z,2.15
2022-10-07T04:48:04.237Z,1.55
2022-10-07T04:50:32.454Z,1.80
2022-10-07T04:53:01.070Z,1.50
2022-10-07T04:55:28.726Z,1.40
2022-10-07T04:57:56.395Z,2.07
2022-10-07T05:00:25.070Z,1.65
2022-10-07T05:02:52.737Z,1.25
2022-10-07T05:05:20.443Z,2.33
2022-10-07T05:07:52.634Z,1.50
2022-10-07T05:10:20.870Z,2.17
2022-10-07T05:12:51.494Z,1.77
2022-10-07T05:15:23.721Z,2.47
2022-10-07T05:17:54.233Z,2.17
2022-10-07T05:20:21.949Z,1.92
2022-10-07T05:22:49.643Z,2.97
2022-10-07T05:25:17.434Z,2.05
2022-10-07T05:27:45.313Z,1.85
2022-10-07T05:30:13.286Z,1.47
2022-10-07T05:32:40.941Z,2.60
2022-10-07T05:35:08.814Z,2.28
2022-10-07T05:37:36.491Z,1.58
2022-10-07T05:40:04.139Z,1.67
2022-10-07T05:42:31.852Z,1.67
2022-10-07T05:44:59.587Z,2.17
2022-10-07T05:47:27.519Z,2.00
2022-10-07T05:49:58.562Z,1.60
2022-10-07T05:52:26.151Z,1.88
2022-10-07T05:54:53.927Z,1.83
2022-10-07T05:57:22.888Z,1.98
2022-10-07T05:59:51.794Z,2.30
2022-10-07T06:02:19.581Z,1.65
2022-10-07T06:04:47.907Z,2.07
2022-10-07T06:07:20.372Z,2.13
2022-10-07T06:10:07.870Z,2.10
2022-10-07T06:12:54.260Z,1.60
2022-10-07T06:15:22.123Z,1.15
2022-10-07T06:17:49.853Z,1.52
2022-10-07T06:20:18.696Z,1.80
2022-10-07T06:22:46.393Z,1.92
2022-10-07T06:25:14.067Z,2.10
2022-10-07T06:27:41.834Z,2.00
2022-10-07T06:30:09.709Z,1.93
2022-10-07T06:32:37.317Z,2.15
2022-10-07T06:35:05.217Z,2.40
2022-10-07T06:37:33.126Z,1.60
2022-10-07T06:40:00.829Z,1.80
2022-10-07T06:42:28.446Z,2.15
2022-10-07T06:44:56.333Z,2.30
2022-10-07T06:47:23.931Z,2.35
2022-10-07T06:49:51.752Z,1.63
2022-10-07T06:52:19.378Z,2.00
2022-10-07T06:54:47.166Z,2.20
2022-10-07T06:57:40.845Z,2.50
2022-10-07T07:00:04.654Z,2.08
2022-10-07T07:02:33.473Z,1.77
2022-10-07T07:05:04.675Z,2.05
2022-10-07T07:07:32.488Z,2.70
2022-10-07T07:10:00.195Z,1.90
2022-10-07T07:12:28.015Z,2.45
2022-10-07T07:14:55.758Z,2.00
2022-10-07T07:17:23.479Z,1.40
2022-10-07T07:19:51.130Z,2.07
2022-10-07T07:22:20.634Z,1.77
2022-10-07T07:24:48.544Z,2.92
2022-10-07T07:27:16.365Z,2.07
2022-10-07T07:29:44.117Z,2.13
2022-10-07T07:32:11.756Z,2.47
2022-10-07T07:34:39.545Z,2.07
2022-10-07T07:37:07.259Z,2.05
2022-10-07T07:39:34.992Z,2.17
2022-10-07T07:42:02.642Z,1.98
2022-10-07T07:44:34.894Z,2.40
2022-10-07T07:47:02.765Z,2.50
2022-10-07T07:49:32.407Z,1.80
2022-10-07T07:52:00.046Z,1.90
2022-10-07T07:54:27.814Z,2.03
2022-10-07T07:56:56.443Z,1.70
2022-10-07T07:59:25.472Z,2.20
2022-10-07T08:01:53.166Z,2.38
2022-10-07T08:04:21.238Z,2.33
2022-10-07T08:06:48.974Z,1.52
2022-10-07T08:09:17.849Z,3.47
2022-10-07T08:11:45.637Z,2.20
2022-10-07T08:14:13.798Z,2.10
2022-10-07T08:16:43.676Z,1.67
2022-10-07T08:19:12.523Z,1.75
2022-10-07T08:21:40.611Z,2.25
2022-10-07T08:24:09.882Z,2.25
2022-10-07T08:26:38.285Z,2.10
2022-10-07T08:29:05.963Z,2.00
2022-10-07T08:31:34.274Z,2.35
2022-10-07T08:34:04.681Z,2.07
2022-10-07T08:36:35.783Z,1.73
2022-10-07T08:39:04.655Z,2.75
2022-10-07T08:41:33.525Z,2.73
2022-10-07T08:44:08.089Z,2.00
2022-10-07T08:46:36.550Z,2.20
2022-10-07T08:49:06.162Z,1.77
2022-10-07T08:51:39.346Z,2.40
2022-10-07T08:54:07.867Z,2.83
2022-10-07T08:56:35.614Z,2.92
2022-10-07T08:59:09.722Z,2.57
2022-10-07T09:01:51.752Z,2.83
2022-10-07T09:04:23.768Z,2.22
2022-10-07T09:07:00.694Z,1.60
2022-10-07T09:09:29.678Z,1.67
2022-10-07T09:11:57.333Z,2.72
2022-10-07T09:14:27.136Z,1.40
2022-10-07T09:16:55.231Z,1.67
2022-10-07T09:19:38.368Z,1.90
2022-10-07T09:22:19.518Z,1.90
2022-10-07T09:24:47.601Z,1.60
2022-10-07T09:27:16.299Z,1.70
2022-10-07T09:29:44.083Z,2.40
2022-10-07T09:32:14.961Z,1.83
2022-10-07T09:34:42.635Z,1.90
2022-10-07T09:37:16.136Z,1.63
2022-10-07T09:39:44.544Z,1.50
2022-10-07T09:42:38.392Z,1.77
2022-10-07T09:45:26.542Z,1.98
2022-10-07T09:47:55.178Z,1.98
2022-10-07T09:50:49.114Z,2.07
2022-10-07T09:53:20.793Z,2.10
2022-10-07T09:55:48.515Z,1.85
2022-10-07T09:58:25.790Z,2.27
2022-10-07T10:00:54.148Z,2.15
2022-10-07T10:03:21.975Z,2.03
2022-10-07T10:05:53.566Z,2.00
2022-10-07T10:08:34.909Z,2.53
2022-10-07T10:11:03.431Z,2.03
2022-10-07T10:13:32.314Z,1.70
2022-10-07T10:16:00.193Z,2.37
2022-10-07T10:18:27.857Z,1.90
2022-10-07T10:20:55.612Z,1.75
2022-10-07T10:23:24.769Z,1.83
2022-10-07T10:26:23.363Z,2.15
2022-10-07T10:29:09.773Z,1.73
2022-10-07T10:31:46.456Z,1.75
2022-10-07T10:34:14.090Z,1.63
2022-10-07T10:36:43.286Z,1.70
2022-10-07T10:39:19.896Z,2.25
2022-10-07T10:41:55.254Z,2.30
2022-10-07T10:44:22.840Z,1.85
2022-10-07T10:46:54.935Z,1.90
2022-10-07T10:49:41.692Z,2.90
2022-10-07T10:52:31.074Z,2.10
2022-10-07T10:55:18.069Z,2.15
2022-10-07T10:57:45.786Z,2.28
2022-10-07T11:00:13.520Z,1.25
2022-10-07T11:02:41.301Z,1.63
2022-10-07T11:05:21.175Z,1.92
2022-10-07T11:07:50.088Z,1.53
2022-10-07T11:10:27.715Z,1.95
2022-10-07T11:13:03.185Z,1.35
2022-10-07T11:15:35.399Z,1.80
2022-10-07T11:18:05.828Z,1.67
2022-10-07T11:20:34.598Z,1.58
2022-10-07T11:23:03.984Z,1.52
2022-10-07T11:25:39.196Z,1.02
2022-10-07T11:28:10.976Z,1.38
2022-10-07T11:30:42.984Z,1.17
2022-10-07T11:33:16.189Z,1.50
2022-10-07T11:35:51.999Z,1.58
2022-10-07T11:38:21.489Z,1.73
2022-10-07T11:40:51.545Z,1.70
2022-10-07T11:43:20.504Z,1.70
2022-10-07T11:45:52.415Z,1.50
2022-10-07T11:48:24.811Z,1.33
2022-10-07T11:51:10.373Z,1.20
2022-10-07T11:53:38.610Z,1.98
2022-10-07T11:56:16.831Z,1.50
2022-10-07T11:58:44.929Z,1.60
2022-10-07T12:01:41.843Z,1.25
2022-10-07T12:04:29.829Z,1.25
2022-10-07T12:07:29.951Z,1.40
2022-10-07T12:10:00.380Z,1.52
2022-10-07T12:12:43.952Z,1.40
2022-10-07T12:15:30.705Z,2.20
2022-10-07T12:18:04.475Z,1.65
2022-10-07T12:20:35.066Z,1.50
2022-10-07T12:23:29.679Z,1.30
2022-10-07T12:26:01.366Z,1.27
2022-10-07T12:28:32.030Z,1.45
2022-10-07T12:31:00.423Z,1.40
2022-10-07T12:33:46.385Z,1.33
2022-10-07T12:36:21.368Z,1.60
2022-10-07T12:38:58.522Z,1.30
2022-10-07T12:41:26.191Z,1.33
2022-10-07T12:44:20.214Z,1.27
2022-10-07T12:46:54.387Z,1.10
2022-10-07T12:49:42.330Z,1.52
2022-10-07T12:52:20.313Z,1.30
2022-10-07T12:54:47.960Z,1.15
2022-10-07T12:57:19.349Z,2.03
2022-10-07T12:59:56.499Z,1.27
2022-10-07T13:02:36.233Z,1.30
2022-10-07T13:05:10.006Z,1.65
2022-10-07T13:07:37.582Z,1.88
2022-10-07T13:10:23.892Z,1.27
2022-10-07T13:13:02.923Z,1.20
2022-10-07T13:15:47.449Z,1.30
2022-10-07T13:18:21.416Z,1.27
2022-10-07T13:20:51.837Z,1.35
2022-10-07T13:23:26.091Z,1.10
2022-10-07T13:25:55.818Z,1.37
2022-10-07T13:28:25.381Z,1.23
2022-10-07T13:30:53.299Z,1.00
2022-10-07T13:33:28.477Z,1.45
2022-10-07T13:36:15.927Z,1.17
2022-10-07T13:38:43.845Z,1.10
2022-10-07T13:41:14.634Z,0.90
2022-10-07T13:43:43.899Z,1.30
2022-10-07T13:46:11.878Z,1.50
2022-10-07T13:48:45.371Z,0.90
2022-10-07T13:51:33.674Z,1.00
2022-10-07T13:54:01.960Z,1.30
2022-10-07T13:56:39.165Z,1.20
2022-10-07T13:59:06.972Z,0.88
2022-10-07T14:01:37.312Z,1.02
2022-10-07T14:04:21.122Z,0.93
2022-10-07T14:07:19.489Z,1.00
2022-10-07T14:09:50.703Z,1.10
2022-10-07T14:12:37.366Z,1.10
2022-10-07T14:15:13.326Z,1.48
2022-10-07T14:17:42.070Z,1.20
2022-10-07T14:20:18.673Z,1.10
2022-10-07T14:22:48.613Z,1.42
2022-10-07T14:25:23.738Z,1.02
2022-10-07T14:27:52.878Z,1.25
2022-10-07T14:30:27.707Z,1.63
2022-10-07T14:33:26.236Z,1.02
2022-10-07T14:36:12.921Z,1.03
2022-10-07T14:38:41.310Z,1.48
2022-10-07T14:41:11.900Z,1.20
2022-10-07T14:43:40.322Z,1.30
2022-10-07T14:46:09.517Z,1.58
2022-10-07T14:48:37.331Z,1.00
2022-10-07T14:51:05.064Z,1.20
2022-10-07T14:53:32.852Z,1.02
2022-10-07T14:56:00.528Z,1.52
2022-10-07T14:58:29.391Z,1.45
2022-10-07T15:00:57.348Z,0.73
2022-10-07T15:03:25.161Z,1.60
2022-10-07T15:05:52.864Z,1.00
2022-10-07T15:08:20.676Z,0.93
2022-10-07T15:10:48.390Z,1.10
2022-10-07T15:13:16.217Z,1.60
2022-10-07T15:15:44.736Z,1.00
2022-10-07T15:18:12.414Z,1.40
2022-10-07T15:20:40.273Z,0.93
2022-10-07T15:23:08.363Z,1.25
2022-10-07T15:25:36.406Z,0.90
2022-10-07T15:28:04.065Z,1.35
2022-10-07T15:30:34.451Z,1.10
2022-10-07T15:33:06.144Z,0.90
2022-10-07T15:35:34.171Z,1.30
2022-10-07T15:38:01.880Z,1.17
2022-10-07T15:40:30.043Z,1.00
2022-10-07T15:42:58.343Z,0.90
2022-10-07T15:45:26.937Z,0.90
2022-10-07T15:48:00.442Z,1.08
2022-10-07T15:50:28.952Z,1.07
2022-10-07T15:52:56.755Z,1.15
2022-10-07T15:55:24.473Z,1.10
2022-10-07T15:57:52.118Z,1.00
2022-10-07T16:00:21.062Z,0.75
2022-10-07T16:02:49.173Z,1.00
2022-10-07T16:05:17.458Z,1.13
2022-10-07T16:07:45.113Z,1.63
2022-10-07T16:10:15.969Z,0.90
2022-10-07T16:12:43.893Z,1.23
2022-10-07T16:15:12.033Z,1.23
2022-10-07T16:17:39.890Z,1.10
2022-10-07T16:20:11.176Z,0.80
2022-10-07T16:22:39.104Z,0.90
2022-10-07T16:25:07.013Z,1.10
2022-10-07T16:27:54.916Z,1.15
2022-10-07T16:30:41.019Z,1.20
2022-10-07T16:33:09.169Z,1.50
2022-10-07T16:35:36.891Z,0.93
2022-10-07T16:38:05.531Z,1.10
2022-10-07T16:40:33.267Z,1.00
2022-10-07T16:43:03.925Z,0.98
2022-10-07T16:45:31.679Z,1.20
2022-10-07T16:47:59.701Z,0.90
2022-10-07T16:50:29.722Z,1.20
2022-10-07T16:52:57.357Z,0.98
2022-10-07T16:55:25.078Z,1.02
2022-10-07T16:57:53.874Z,1.02
2022-10-07T17:00:22.240Z,0.80
2022-10-07T17:02:49.888Z,1.27
2022-10-07T17:05:17.958Z,1.27
2022-10-07T17:07:45.766Z,0.82
2022-10-07T17:10:13.633Z,0.93
2022-10-07T17:12:41.327Z,1.00
2022-10-07T17:15:09.544Z,0.95
2022-10-07T17:17:37.320Z,0.90
2022-10-07T17:20:05.795Z,1.00
2022-10-07T17:22:33.549Z,1.13
2022-10-07T17:25:03.272Z,0.90
2022-10-07T17:27:31.017Z,0.98
2022-10-07T17:29:58.785Z,0.90
2022-10-07T17:32:27.547Z,1.27
2022-10-07T17:34:55.316Z,1.67
2022-10-07T17:37:23.074Z,0.83
2022-10-07T17:39:54.216Z,1.10
2022-10-07T17:42:22.989Z,1.42
2022-10-07T17:44:50.724Z,1.02
2022-10-07T17:47:18.805Z,1.63
2022-10-07T17:49:46.532Z,1.25
2022-10-07T17:52:14.497Z,1.33
2022-10-07T17:54:42.216Z,1.73
2022-10-07T17:57:10.349Z,1.30
2022-10-07T17:59:38.938Z,1.00
2022-10-07T18:02:09.078Z,1.37
2022-10-07T18:04:36.855Z,1.48
2022-10-07T18:07:04.553Z,1.15
2022-10-07T18:09:32.340Z,1.20
2022-10-07T18:12:19.058Z,1.50
2022-10-07T18:15:05.286Z,1.23
2022-10-07T18:17:33.437Z,1.27
2022-10-07T18:20:03.432Z,1.27
2022-10-07T18:22:31.763Z,1.60
2022-10-07T18:24:59.772Z,1.10
2022-10-07T18:27:27.953Z,1.40
2022-10-07T18:29:56.075Z,1.65
2022-10-07T18:32:25.529Z,1.33
2022-10-07T18:34:53.274Z,1.50
2022-10-07T18:37:23.642Z,0.93
2022-10-07T18:39:55.554Z,1.15
2022-10-07T18:42:23.333Z,1.20
2022-10-07T18:44:52.460Z,1.40
2022-10-07T18:47:20.291Z,1.60
2022-10-07T18:49:48.023Z,1.88
2022-10-07T18:52:15.804Z,1.67
2022-10-07T18:54:44.755Z,2.00
2022-10-07T18:57:14.580Z,1.50
2022-10-07T18:59:42.574Z,1.97
2022-10-07T19:02:14.521Z,1.40
2022-10-07T19:04:50.712Z,1.40
2022-10-07T19:07:19.228Z,1.52
2022-10-07T19:09:59.765Z,1.20
2022-10-07T19:12:50.616Z,1.95
2022-10-07T19:15:20.938Z,1.42
2022-10-07T19:17:52.292Z,1.93
2022-10-07T19:20:20.677Z,1.50
2022-10-07T19:22:58.218Z,1.60
2022-10-07T19:25:45.914Z,1.08
2022-10-07T19:28:20.946Z,1.70
2022-10-07T19:30:49.995Z,1.20
2022-10-07T19:33:24.884Z,1.48
2022-10-07T19:35:55.143Z,1.83
2022-10-07T19:38:25.712Z,2.05
2022-10-07T19:40:57.001Z,1.25
2022-10-07T19:43:25.926Z,1.40
2022-10-07T19:45:55.035Z,1.02
2022-10-07T19:48:23.527Z,1.40
2022-10-07T19:51:04.810Z,1.90
2022-10-07T19:53:37.143Z,1.65
2022-10-07T19:56:18.026Z,2.17
2022-10-07T19:58:53.466Z,1.25
2022-10-07T20:01:22.508Z,1.10
2022-10-07T20:03:52.125Z,1.48
2022-10-07T20:06:24.348Z,1.73
2022-10-07T20:08:56.093Z,1.87
2022-10-07T20:11:23.916Z,1.20
2022-10-07T20:13:54.384Z,1.70
2022-10-07T20:16:23.050Z,1.58
2022-10-07T20:18:51.793Z,1.55
2022-10-07T20:21:23.902Z,1.75
2022-10-07T20:23:52.267Z,1.77
2022-10-07T20:26:22.112Z,1.60
2022-10-07T20:28:50.624Z,1.48
2022-10-07T20:31:19.014Z,1.42
2022-10-07T20:33:47.572Z,1.83
2022-10-07T20:36:16.155Z,1.80
2022-10-07T20:39:02.721Z,1.38
2022-10-07T20:41:49.499Z,1.60
2022-10-07T20:44:17.724Z,1.20
2022-10-07T20:46:45.378Z,1.70
2022-10-07T20:49:25.143Z,1.77
2022-10-07T20:51:53.354Z,1.40
2022-10-07T20:54:22.024Z,1.30
2022-10-07T20:56:50.759Z,1.70
2022-10-07T20:59:18.512Z,1.93
2022-10-07T21:01:46.285Z,1.50
2022-10-07T21:04:14.776Z,1.60
2022-10-07T21:06:42.799Z,1.60
2022-10-07T21:09:10.695Z,1.67
2022-10-07T21:11:38.563Z,1.95
2022-10-07T21:14:06.303Z,1.55
2022-10-07T21:16:35.354Z,1.63
2022-10-07T21:19:03.122Z,1.65
2022-10-07T21:21:30.871Z,1.60
2022-10-07T21:23:58.505Z,1.30
2022-10-07T21:26:29.033Z,1.45
2022-10-07T21:28:56.678Z,1.33
2022-10-07T21:31:25.577Z,1.20
2022-10-07T21:33:53.385Z,1.20
2022-10-07T21:36:22.019Z,1.27
2022-10-07T21:38:52.250Z,1.40
2022-10-07T21:41:20.740Z,1.63
2022-10-07T21:43:51.706Z,1.77
2022-10-07T21:46:19.593Z,1.30
2022-10-07T21:48:47.463Z,1.73
2022-10-07T21:51:15.181Z,1.33
2022-10-07T21:53:42.931Z,1.58
2022-10-07T21:56:13.732Z,1.40
2022-10-07T21:58:47.064Z,1.50
2022-10-07T22:01:15.613Z,1.08
2022-10-07T22:03:43.692Z,1.30
2022-10-07T22:06:12.145Z,1.33
2022-10-07T22:08:40.076Z,2.13
2022-10-07T22:11:08.807Z,1.60
2022-10-07T22:13:39.151Z,1.60
2022-10-07T22:16:07.747Z,1.27
2022-10-07T22:18:35.845Z,1.17
2022-10-07T22:21:04.409Z,1.30
2022-10-07T22:23:31.999Z,1.30
2022-10-07T22:26:03.140Z,1.65
2022-10-07T22:28:31.503Z,1.75
2022-10-07T22:30:59.534Z,1.13
2022-10-07T22:33:27.213Z,1.25
2022-10-07T22:35:54.946Z,1.67
2022-10-07T22:38:24.508Z,1.33
2022-10-07T22:40:52.497Z,1.40
2022-10-07T22:43:20.178Z,1.40
2022-10-07T22:45:57.425Z,1.20
2022-10-07T22:48:25.729Z,1.38
2022-10-07T22:50:53.384Z,1.08
2022-10-07T22:53:21.130Z,1.15
2022-10-07T22:55:48.717Z,1.20
2022-10-07T22:58:16.470Z,1.40
2022-10-07T23:00:44.151Z,1.27
2022-10-07T23:03:12.357Z,1.60
2022-10-07T23:05:40.139Z,1.00
2022-10-07T23:08:10.029Z,1.40
2022-10-07T23:10:37.694Z,1.20
2022-10-07T23:13:05.280Z,1.38
2022-10-07T23:15:33.070Z,1.40
2022-10-07T23:18:00.849Z,1.45
2022-10-07T23:20:28.551Z,1.47
2022-10-07T23:22:56.126Z,1.63
2022-10-07T23:25:24.539Z,1.60
2022-10-07T23:27:52.149Z,1.50
2022-10-07T23:30:19.849Z,1.60
2022-10-07T23:32:47.759Z,1.88
2022-10-07T23:35:15.755Z,1.98
2022-10-07T23:37:43.921Z,1.63
2022-10-07T23:40:11.690Z,1.70
2022-10-07T23:42:39.374Z,1.80
2022-10-07T23:45:07.205Z,1.50
2022-10-07T23:47:34.883Z,1.92
2022-10-07T23:50:02.502Z,1.88
2022-10-07T23:52:31.623Z,1.80
2022-10-07T23:54:59.342Z,1.98
2022-10-07T23:57:26.933Z,1.45
2022-10-07T23:59:57.619Z,1.57
